sensor_id;sensor_type;location;lat;lon;timestamp;P1;durP1;ratioP1;P2;durP2;ratioP2
22359;SDS011;11347;52.030;4.690;2022-10-17T00:01:55;4.10;;;1.00;;
22359;SDS011;11347;52.030;4.690;2022-10-17T00:04:20;1.97;;;0.93;;
22359;SDS011;11347;52.030;4.690;2022-10-17T00:06:46;2.27;;;1.07;;
22359;SDS011;11347;52.030;4.690;2022-10-17T00:09:12;2.53;;;1.00;;
22359;SDS011;11347;52.030;4.690;2022-10-17T00:11:37;3.23;;;1.03;;
22359;SDS011;11347;52.030;4.690;2022-10-17T00:14:03;2.13;;;0.97;;
22359;SDS011;11347;52.030;4.690;2022-10-17T00:16:30;2.37;;;1.07;;
22359;SDS011;11347;52.030;4.690;2022-10-17T00:18:57;2.37;;;0.90;;
22359;SDS011;11347;52.030;4.690;2022-10-17T00:21:24;3.20;;;1.00;;
22359;SDS011;11347;52.030;4.690;2022-10-17T00:23:50;2.50;;;0.97;;
22359;SDS011;11347;52.030;4.690;2022-10-17T00:26:16;2.83;;;0.90;;
22359;SDS011;11347;52.030;4.690;2022-10-17T00:28:46;1.77;;;1.00;;
22359;SDS011;11347;52.030;4.690;2022-10-17T00:31:12;2.00;;;0.93;;
22359;SDS011;11347;52.030;4.690;2022-10-17T00:33:38;1.00;;;0.70;;
22359;SDS011;11347;52.030;4.690;2022-10-17T00:36:11;2.93;;;1.37;;
22359;SDS011;11347;52.030;4.690;2022-10-17T00:38:38;3.83;;;1.10;;
22359;SDS011;11347;52.030;4.690;2022-10-17T00:41:07;1.93;;;1.00;;
22359;SDS011;11347;52.030;4.690;2022-10-17T00:43:53;4.10;;;1.20;;
22359;SDS011;11347;52.030;4.690;2022-10-17T00:46:22;3.20;;;1.03;;
22359;SDS011;11347;52.030;4.690;2022-10-17T00:48:50;3.40;;;1.00;;
22359;SDS011;11347;52.030;4.690;2022-10-17T00:51:18;3.13;;;1.20;;
22359;SDS011;11347;52.030;4.690;2022-10-17T00:53:49;2.80;;;0.90;;
22359;SDS011;11347;52.030;4.690;2022-10-17T00:56:15;1.90;;;0.90;;
22359;SDS011;11347;52.030;4.690;2022-10-17T00:58:43;3.00;;;1.43;;
22359;SDS011;11347;52.030;4.690;2022-10-17T01:01:08;2.93;;;1.00;;
22359;SDS011;11347;52.030;4.690;2022-10-17T01:03:34;1.60;;;1.00;;
22359;SDS011;11347;52.030;4.690;2022-10-17T01:06:00;3.07;;;1.20;;
22359;SDS011;11347;52.030;4.690;2022-10-17T01:08:25;2.77;;;1.10;;
22359;SDS011;11347;52.030;4.690;2022-10-17T01:13:45;1.37;;;0.87;;
22359;SDS011;11347;52.030;4.690;2022-10-17T01:19:04;3.23;;;1.23;;
22359;SDS011;11347;52.030;4.690;2022-10-17T01:21:59;1.17;;;0.80;;
22359;SDS011;11347;52.030;4.690;2022-10-17T01:35:49;2.40;;;1.10;;
22359;SDS011;11347;52.030;4.690;2022-10-17T01:38:23;3.33;;;1.37;;
22359;SDS011;11347;52.030;4.690;2022-10-17T01:43:23;3.73;;;1.40;;
22359;SDS011;11347;52.030;4.690;2022-10-17T01:45:54;2.80;;;1.43;;
22359;SDS011;11347;52.030;4.690;2022-10-17T01:48:28;2.60;;;1.40;;
22359;SDS011;11347;52.030;4.690;2022-10-17T01:51:02;2.93;;;1.53;;
22359;SDS011;11347;52.030;4.690;2022-10-17T01:53:36;2.23;;;1.30;;
22359;SDS011;11347;52.030;4.690;2022-10-17T01:56:07;2.63;;;1.30;;
22359;SDS011;11347;52.030;4.690;2022-10-17T01:58:37;1.67;;;1.20;;
22359;SDS011;11347;52.030;4.690;2022-10-17T02:01:09;3.30;;;1.23;;
22359;SDS011;11347;52.030;4.690;2022-10-17T02:03:37;4.63;;;1.50;;
22359;SDS011;11347;52.030;4.690;2022-10-17T02:06:06;3.60;;;1.23;;
22359;SDS011;11347;52.030;4.690;2022-10-17T02:11:13;2.47;;;1.27;;
22359;SDS011;11347;52.030;4.690;2022-10-17T02:16:28;2.77;;;1.60;;
22359;SDS011;11347;52.030;4.690;2022-10-17T02:22:06;3.17;;;1.43;;
22359;SDS011;11347;52.030;4.690;2022-10-17T02:24:58;2.90;;;1.40;;
22359;SDS011;11347;52.030;4.690;2022-10-17T02:36:01;2.43;;;1.33;;
22359;SDS011;11347;52.030;4.690;2022-10-17T02:38:30;4.30;;;1.10;;
22359;SDS011;11347;52.030;4.690;2022-10-17T02:40:57;6.00;;;1.63;;
22359;SDS011;11347;52.030;4.690;2022-10-17T02:43:24;3.80;;;1.37;;
22359;SDS011;11347;52.030;4.690;2022-10-17T02:45:50;2.07;;;1.30;;
22359;SDS011;11347;52.030;4.690;2022-10-17T02:48:24;2.43;;;1.10;;
22359;SDS011;11347;52.030;4.690;2022-10-17T02:56:36;2.90;;;1.40;;
22359;SDS011;11347;52.030;4.690;2022-10-17T02:59:07;3.00;;;1.53;;
22359;SDS011;11347;52.030;4.690;2022-10-17T03:01:36;4.37;;;1.30;;
22359;SDS011;11347;52.030;4.690;2022-10-17T03:04:09;3.00;;;1.50;;
22359;SDS011;11347;52.030;4.690;2022-10-17T03:06:37;4.47;;;1.57;;
22359;SDS011;11347;52.030;4.690;2022-10-17T03:09:05;3.67;;;1.50;;
22359;SDS011;11347;52.030;4.690;2022-10-17T03:11:30;4.27;;;1.40;;
22359;SDS011;11347;52.030;4.690;2022-10-17T03:13:56;1.57;;;0.97;;
22359;SDS011;11347;52.030;4.690;2022-10-17T03:16:22;4.23;;;1.60;;
22359;SDS011;11347;52.030;4.690;2022-10-17T03:18:47;2.30;;;1.27;;
22359;SDS011;11347;52.030;4.690;2022-10-17T03:21:13;2.20;;;1.30;;
22359;SDS011;11347;52.030;4.690;2022-10-17T03:23:38;4.47;;;1.40;;
22359;SDS011;11347;52.030;4.690;2022-10-17T03:26:04;2.80;;;1.40;;
22359;SDS011;11347;52.030;4.690;2022-10-17T03:28:31;3.17;;;1.53;;
22359;SDS011;11347;52.030;4.690;2022-10-17T03:30:56;2.47;;;1.40;;
22359;SDS011;11347;52.030;4.690;2022-10-17T03:33:22;3.33;;;1.30;;
22359;SDS011;11347;52.030;4.690;2022-10-17T03:35:47;3.23;;;1.30;;
22359;SDS011;11347;52.030;4.690;2022-10-17T03:38:13;2.27;;;1.40;;
22359;SDS011;11347;52.030;4.690;2022-10-17T03:40:39;2.87;;;1.50;;
22359;SDS011;11347;52.030;4.690;2022-10-17T03:43:04;4.53;;;1.60;;
22359;SDS011;11347;52.030;4.690;2022-10-17T03:45:30;4.43;;;1.40;;
22359;SDS011;11347;52.030;4.690;2022-10-17T03:47:57;5.07;;;1.63;;
22359;SDS011;11347;52.030;4.690;2022-10-17T03:50:23;2.80;;;1.50;;
22359;SDS011;11347;52.030;4.690;2022-10-17T03:52:49;3.33;;;1.37;;
22359;SDS011;11347;52.030;4.690;2022-10-17T03:55:14;2.10;;;1.40;;
22359;SDS011;11347;52.030;4.690;2022-10-17T03:57:40;3.87;;;1.60;;
22359;SDS011;11347;52.030;4.690;2022-10-17T04:00:06;2.20;;;1.40;;
22359;SDS011;11347;52.030;4.690;2022-10-17T04:02:32;2.37;;;1.60;;
22359;SDS011;11347;52.030;4.690;2022-10-17T04:04:59;2.70;;;1.77;;
22359;SDS011;11347;52.030;4.690;2022-10-17T04:07:25;2.40;;;1.60;;
22359;SDS011;11347;52.030;4.690;2022-10-17T04:09:50;3.20;;;1.90;;
22359;SDS011;11347;52.030;4.690;2022-10-17T04:12:16;3.43;;;1.70;;
22359;SDS011;11347;52.030;4.690;2022-10-17T04:14:41;1.83;;;1.50;;
22359;SDS011;11347;52.030;4.690;2022-10-17T04:17:07;3.77;;;1.60;;
22359;SDS011;11347;52.030;4.690;2022-10-17T04:19:33;2.70;;;1.40;;
22359;SDS011;11347;52.030;4.690;2022-10-17T04:21:58;2.93;;;1.40;;
22359;SDS011;11347;52.030;4.690;2022-10-17T04:24:24;3.10;;;1.53;;
22359;SDS011;11347;52.030;4.690;2022-10-17T04:26:50;3.27;;;1.70;;
22359;SDS011;11347;52.030;4.690;2022-10-17T04:29:15;4.37;;;1.60;;
22359;SDS011;11347;52.030;4.690;2022-10-17T04:31:42;2.63;;;1.40;;
22359;SDS011;11347;52.030;4.690;2022-10-17T04:34:07;2.20;;;1.43;;
22359;SDS011;11347;52.030;4.690;2022-10-17T04:36:33;6.13;;;1.43;;
22359;SDS011;11347;52.030;4.690;2022-10-17T04:38:59;2.33;;;1.60;;
22359;SDS011;11347;52.030;4.690;2022-10-17T04:41:26;3.37;;;1.53;;
22359;SDS011;11347;52.030;4.690;2022-10-17T04:43:52;3.47;;;1.70;;
22359;SDS011;11347;52.030;4.690;2022-10-17T04:46:17;3.57;;;1.47;;
22359;SDS011;11347;52.030;4.690;2022-10-17T04:48:43;3.63;;;1.83;;
22359;SDS011;11347;52.030;4.690;2022-10-17T04:51:13;2.70;;;1.50;;
22359;SDS011;11347;52.030;4.690;2022-10-17T04:53:41;3.70;;;1.60;;
22359;SDS011;11347;52.030;4.690;2022-10-17T04:56:13;3.17;;;1.50;;
22359;SDS011;11347;52.030;4.690;2022-10-17T04:58:41;4.17;;;1.63;;
22359;SDS011;11347;52.030;4.690;2022-10-17T05:01:09;2.00;;;1.50;;
22359;SDS011;11347;52.030;4.690;2022-10-17T05:03:36;5.90;;;1.50;;
22359;SDS011;11347;52.030;4.690;2022-10-17T05:06:05;3.20;;;1.70;;
22359;SDS011;11347;52.030;4.690;2022-10-17T05:08:33;3.57;;;1.60;;
22359;SDS011;11347;52.030;4.690;2022-10-17T05:10:59;2.73;;;1.53;;
22359;SDS011;11347;52.030;4.690;2022-10-17T05:13:25;5.17;;;1.60;;
22359;SDS011;11347;52.030;4.690;2022-10-17T05:15:51;1.90;;;1.50;;
22359;SDS011;11347;52.030;4.690;2022-10-17T05:18:16;4.03;;;1.60;;
22359;SDS011;11347;52.030;4.690;2022-10-17T05:20:42;3.13;;;1.53;;
22359;SDS011;11347;52.030;4.690;2022-10-17T05:23:07;4.43;;;1.60;;
22359;SDS011;11347;52.030;4.690;2022-10-17T05:25:33;2.40;;;1.60;;
22359;SDS011;11347;52.030;4.690;2022-10-17T05:27:59;1.90;;;1.47;;
22359;SDS011;11347;52.030;4.690;2022-10-17T05:30:24;3.03;;;1.90;;
22359;SDS011;11347;52.030;4.690;2022-10-17T05:32:53;3.93;;;1.70;;
22359;SDS011;11347;52.030;4.690;2022-10-17T05:35:19;6.70;;;1.60;;
22359;SDS011;11347;52.030;4.690;2022-10-17T05:37:46;4.97;;;1.60;;
22359;SDS011;11347;52.030;4.690;2022-10-17T05:40:12;5.10;;;1.87;;
22359;SDS011;11347;52.030;4.690;2022-10-17T05:42:37;2.10;;;1.57;;
22359;SDS011;11347;52.030;4.690;2022-10-17T05:45:03;3.57;;;1.67;;
22359;SDS011;11347;52.030;4.690;2022-10-17T05:47:29;2.63;;;1.80;;
22359;SDS011;11347;52.030;4.690;2022-10-17T05:49:55;3.50;;;1.70;;
22359;SDS011;11347;52.030;4.690;2022-10-17T05:52:20;3.00;;;1.50;;
22359;SDS011;11347;52.030;4.690;2022-10-17T05:54:46;4.27;;;1.70;;
22359;SDS011;11347;52.030;4.690;2022-10-17T05:57:11;2.63;;;1.80;;
22359;SDS011;11347;52.030;4.690;2022-10-17T05:59:37;2.80;;;1.80;;
22359;SDS011;11347;52.030;4.690;2022-10-17T06:02:02;5.37;;;1.80;;
22359;SDS011;11347;52.030;4.690;2022-10-17T06:04:28;4.20;;;1.70;;
22359;SDS011;11347;52.030;4.690;2022-10-17T06:06:54;4.23;;;1.80;;
22359;SDS011;11347;52.030;4.690;2022-10-17T06:09:20;3.33;;;1.40;;
22359;SDS011;11347;52.030;4.690;2022-10-17T06:11:46;2.57;;;1.53;;
22359;SDS011;11347;52.030;4.690;2022-10-17T06:14:12;5.37;;;2.10;;
22359;SDS011;11347;52.030;4.690;2022-10-17T06:16:38;4.60;;;1.70;;
22359;SDS011;11347;52.030;4.690;2022-10-17T06:19:03;3.97;;;1.67;;
22359;SDS011;11347;52.030;4.690;2022-10-17T06:21:29;3.63;;;1.80;;
22359;SDS011;11347;52.030;4.690;2022-10-17T06:23:58;9.00;;;1.50;;
22359;SDS011;11347;52.030;4.690;2022-10-17T06:26:23;2.40;;;1.60;;
22359;SDS011;11347;52.030;4.690;2022-10-17T06:28:49;2.40;;;1.60;;
22359;SDS011;11347;52.030;4.690;2022-10-17T06:31:15;3.93;;;1.93;;
22359;SDS011;11347;52.030;4.690;2022-10-17T06:33:41;5.13;;;1.70;;
22359;SDS011;11347;52.030;4.690;2022-10-17T06:36:08;2.53;;;1.60;;
22359;SDS011;11347;52.030;4.690;2022-10-17T06:38:35;3.33;;;1.70;;
22359;SDS011;11347;52.030;4.690;2022-10-17T06:41:02;3.37;;;1.70;;
22359;SDS011;11347;52.030;4.690;2022-10-17T06:43:36;5.77;;;1.60;;
22359;SDS011;11347;52.030;4.690;2022-10-17T06:46:02;3.00;;;1.67;;
22359;SDS011;11347;52.030;4.690;2022-10-17T06:48:28;3.57;;;1.97;;
22359;SDS011;11347;52.030;4.690;2022-10-17T06:50:57;2.40;;;1.70;;
22359;SDS011;11347;52.030;4.690;2022-10-17T06:53:25;2.47;;;1.67;;
22359;SDS011;11347;52.030;4.690;2022-10-17T06:55:52;3.73;;;2.00;;
22359;SDS011;11347;52.030;4.690;2022-10-17T06:58:19;2.50;;;1.70;;
22359;SDS011;11347;52.030;4.690;2022-10-17T07:00:45;3.83;;;1.90;;
22359;SDS011;11347;52.030;4.690;2022-10-17T07:03:10;3.40;;;1.80;;
22359;SDS011;11347;52.030;4.690;2022-10-17T07:05:36;4.03;;;2.10;;
22359;SDS011;11347;52.030;4.690;2022-10-17T07:08:03;5.07;;;2.07;;
22359;SDS011;11347;52.030;4.690;2022-10-17T07:10:29;2.43;;;1.70;;
22359;SDS011;11347;52.030;4.690;2022-10-17T07:12:55;3.37;;;1.77;;
22359;SDS011;11347;52.030;4.690;2022-10-17T07:15:20;4.10;;;2.07;;
22359;SDS011;11347;52.030;4.690;2022-10-17T07:17:49;3.93;;;2.23;;
22359;SDS011;11347;52.030;4.690;2022-10-17T07:20:14;5.13;;;2.00;;
22359;SDS011;11347;52.030;4.690;2022-10-17T07:22:40;3.33;;;2.23;;
22359;SDS011;11347;52.030;4.690;2022-10-17T07:25:06;3.47;;;2.00;;
22359;SDS011;11347;52.030;4.690;2022-10-17T07:27:32;3.93;;;1.83;;
22359;SDS011;11347;52.030;4.690;2022-10-17T07:29:58;3.93;;;2.00;;
22359;SDS011;11347;52.030;4.690;2022-10-17T07:32:23;5.63;;;2.10;;
22359;SDS011;11347;52.030;4.690;2022-10-17T07:34:49;3.53;;;2.00;;
22359;SDS011;11347;52.030;4.690;2022-10-17T07:37:15;3.53;;;2.50;;
22359;SDS011;11347;52.030;4.690;2022-10-17T07:39:40;3.93;;;2.00;;
22359;SDS011;11347;52.030;4.690;2022-10-17T07:42:06;4.13;;;2.03;;
22359;SDS011;11347;52.030;4.690;2022-10-17T07:44:31;3.80;;;2.30;;
22359;SDS011;11347;52.030;4.690;2022-10-17T07:46:57;4.07;;;1.90;;
22359;SDS011;11347;52.030;4.690;2022-10-17T07:49:23;3.73;;;2.00;;
22359;SDS011;11347;52.030;4.690;2022-10-17T07:51:48;5.00;;;2.10;;
22359;SDS011;11347;52.030;4.690;2022-10-17T07:54:14;4.37;;;1.97;;
22359;SDS011;11347;52.030;4.690;2022-10-17T07:56:39;3.27;;;2.00;;
22359;SDS011;11347;52.030;4.690;2022-10-17T07:59:05;3.80;;;2.10;;
22359;SDS011;11347;52.030;4.690;2022-10-17T08:01:31;4.50;;;2.60;;
22359;SDS011;11347;52.030;4.690;2022-10-17T08:03:56;4.37;;;2.30;;
22359;SDS011;11347;52.030;4.690;2022-10-17T08:06:22;4.90;;;2.20;;
22359;SDS011;11347;52.030;4.690;2022-10-17T08:08:47;4.77;;;2.50;;
22359;SDS011;11347;52.030;4.690;2022-10-17T08:11:13;4.70;;;2.17;;
22359;SDS011;11347;52.030;4.690;2022-10-17T08:13:39;5.37;;;2.30;;
22359;SDS011;11347;52.030;4.690;2022-10-17T08:16:06;3.67;;;2.30;;
22359;SDS011;11347;52.030;4.690;2022-10-17T08:18:34;4.47;;;2.33;;
22359;SDS011;11347;52.030;4.690;2022-10-17T08:21:01;3.20;;;2.17;;
22359;SDS011;11347;52.030;4.690;2022-10-17T08:23:30;4.23;;;2.27;;
22359;SDS011;11347;52.030;4.690;2022-10-17T08:25:59;3.90;;;2.40;;
22359;SDS011;11347;52.030;4.690;2022-10-17T08:28:28;5.70;;;2.40;;
22359;SDS011;11347;52.030;4.690;2022-10-17T08:31:01;4.20;;;2.53;;
22359;SDS011;11347;52.030;4.690;2022-10-17T08:33:28;6.67;;;2.47;;
22359;SDS011;11347;52.030;4.690;2022-10-17T08:35:53;4.10;;;2.37;;
22359;SDS011;11347;52.030;4.690;2022-10-17T08:38:19;2.97;;;2.10;;
22359;SDS011;11347;52.030;4.690;2022-10-17T08:40:47;3.73;;;2.47;;
22359;SDS011;11347;52.030;4.690;2022-10-17T08:46:01;3.77;;;1.97;;
22359;SDS011;11347;52.030;4.690;2022-10-17T08:48:30;3.97;;;2.20;;
22359;SDS011;11347;52.030;4.690;2022-10-17T08:56:36;3.77;;;2.23;;
22359;SDS011;11347;52.030;4.690;2022-10-17T08:59:28;3.23;;;1.90;;
22359;SDS011;11347;52.030;4.690;2022-10-17T09:09:49;5.20;;;2.23;;
22359;SDS011;11347;52.030;4.690;2022-10-17T09:12:35;5.50;;;2.23;;
22359;SDS011;11347;52.030;4.690;2022-10-17T09:20:47;3.30;;;2.10;;
22359;SDS011;11347;52.030;4.690;2022-10-17T09:23:42;3.77;;;2.00;;
22359;SDS011;11347;52.030;4.690;2022-10-17T09:26:11;3.27;;;2.13;;
22359;SDS011;11347;52.030;4.690;2022-10-17T09:28:38;6.33;;;2.20;;
22359;SDS011;11347;52.030;4.690;2022-10-17T09:33:38;4.27;;;2.00;;
22359;SDS011;11347;52.030;4.690;2022-10-17T09:36:19;4.20;;;2.00;;
22359;SDS011;11347;52.030;4.690;2022-10-17T09:38:50;6.03;;;2.17;;
22359;SDS011;11347;52.030;4.690;2022-10-17T09:44:34;2.87;;;1.80;;
22359;SDS011;11347;52.030;4.690;2022-10-17T09:48:03;5.27;;;2.10;;
22359;SDS011;11347;52.030;4.690;2022-10-17T09:50:20;2.67;;;1.97;;
22359;SDS011;11347;52.030;4.690;2022-10-17T09:52:50;4.77;;;2.40;;
22359;SDS011;11347;52.030;4.690;2022-10-17T09:55:20;3.67;;;1.93;;
22359;SDS011;11347;52.030;4.690;2022-10-17T09:57:58;4.13;;;2.07;;
22359;SDS011;11347;52.030;4.690;2022-10-17T10:00:28;4.73;;;2.10;;
22359;SDS011;11347;52.030;4.690;2022-10-17T10:05:42;3.00;;;1.97;;
22359;SDS011;11347;52.030;4.690;2022-10-17T10:08:33;4.93;;;2.10;;
22359;SDS011;11347;52.030;4.690;2022-10-17T10:11:03;4.40;;;2.27;;
22359;SDS011;11347;52.030;4.690;2022-10-17T10:13:32;5.23;;;2.20;;
22359;SDS011;11347;52.030;4.690;2022-10-17T10:18:45;4.00;;;2.30;;
22359;SDS011;11347;52.030;4.690;2022-10-17T10:24:02;4.57;;;2.20;;
22359;SDS011;11347;52.030;4.690;2022-10-17T10:26:50;3.80;;;2.00;;
22359;SDS011;11347;52.030;4.690;2022-10-17T10:31:49;6.07;;;2.40;;
22359;SDS011;11347;52.030;4.690;2022-10-17T10:34:24;2.50;;;1.80;;
22359;SDS011;11347;52.030;4.690;2022-10-17T10:36:56;5.33;;;2.30;;
22359;SDS011;11347;52.030;4.690;2022-10-17T10:41:56;3.43;;;1.93;;
22359;SDS011;11347;52.030;4.690;2022-10-17T10:44:23;3.27;;;1.90;;
22359;SDS011;11347;52.030;4.690;2022-10-17T10:47:05;3.83;;;1.90;;
22359;SDS011;11347;52.030;4.690;2022-10-17T10:49:46;2.93;;;2.00;;
22359;SDS011;11347;52.030;4.690;2022-10-17T10:52:17;6.80;;;2.10;;
22359;SDS011;11347;52.030;4.690;2022-10-17T10:55:02;4.27;;;1.87;;
22359;SDS011;11347;52.030;4.690;2022-10-17T10:57:44;3.33;;;1.90;;
22359;SDS011;11347;52.030;4.690;2022-10-17T11:00:13;3.83;;;2.00;;
22359;SDS011;11347;52.030;4.690;2022-10-17T11:02:45;3.73;;;1.97;;
22359;SDS011;11347;52.030;4.690;2022-10-17T11:05:48;5.40;;;2.03;;
22359;SDS011;11347;52.030;4.690;2022-10-17T11:08:37;3.50;;;1.80;;
22359;SDS011;11347;52.030;4.690;2022-10-17T11:13:53;3.03;;;1.80;;
22359;SDS011;11347;52.030;4.690;2022-10-17T11:19:25;4.47;;;1.80;;
22359;SDS011;11347;52.030;4.690;2022-10-17T11:24:51;4.00;;;1.90;;
22359;SDS011;11347;52.030;4.690;2022-10-17T11:27:21;3.23;;;1.60;;
22359;SDS011;11347;52.030;4.690;2022-10-17T11:29:48;3.70;;;1.83;;
22359;SDS011;11347;52.030;4.690;2022-10-17T11:37:54;2.60;;;1.70;;
22359;SDS011;11347;52.030;4.690;2022-10-17T11:40:35;2.20;;;1.53;;
22359;SDS011;11347;52.030;4.690;2022-10-17T11:43:12;2.20;;;1.60;;
22359;SDS011;11347;52.030;4.690;2022-10-17T11:45:44;2.00;;;1.40;;
22359;SDS011;11347;52.030;4.690;2022-10-17T11:48:15;3.60;;;1.70;;
22359;SDS011;11347;52.030;4.690;2022-10-17T11:50:47;3.00;;;1.53;;
22359;SDS011;11347;52.030;4.690;2022-10-17T11:53:19;4.47;;;1.77;;
22359;SDS011;11347;52.030;4.690;2022-10-17T11:55:47;3.77;;;1.57;;
22359;SDS011;11347;52.030;4.690;2022-10-17T11:58:24;3.53;;;1.67;;
22359;SDS011;11347;52.030;4.690;2022-10-17T12:04:00;4.63;;;1.60;;
22359;SDS011;11347;52.030;4.690;2022-10-17T12:09:57;5.20;;;1.40;;
22359;SDS011;11347;52.030;4.690;2022-10-17T12:12:29;3.93;;;1.43;;
22359;SDS011;11347;52.030;4.690;2022-10-17T12:17:36;3.53;;;1.60;;
22359;SDS011;11347;52.030;4.690;2022-10-17T12:22:45;2.57;;;1.40;;
22359;SDS011;11347;52.030;4.690;2022-10-17T12:25:18;4.13;;;1.53;;
22359;SDS011;11347;52.030;4.690;2022-10-17T12:27:47;3.30;;;1.60;;
22359;SDS011;11347;52.030;4.690;2022-10-17T12:32:58;3.10;;;1.50;;
22359;SDS011;11347;52.030;4.690;2022-10-17T12:35:25;3.70;;;1.47;;
22359;SDS011;11347;52.030;4.690;2022-10-17T12:43:02;2.93;;;1.40;;
22359;SDS011;11347;52.030;4.690;2022-10-17T12:46:02;2.13;;;1.20;;
22359;SDS011;11347;52.030;4.690;2022-10-17T12:53:27;3.13;;;1.63;;
22359;SDS011;11347;52.030;4.690;2022-10-17T12:55:58;3.03;;;1.47;;
22359;SDS011;11347;52.030;4.690;2022-10-17T12:58:24;3.63;;;1.53;;
22359;SDS011;11347;52.030;4.690;2022-10-17T13:00:51;2.47;;;1.40;;
22359;SDS011;11347;52.030;4.690;2022-10-17T13:03:19;3.63;;;1.87;;
22359;SDS011;11347;52.030;4.690;2022-10-17T13:05:49;2.90;;;1.60;;
22359;SDS011;11347;52.030;4.690;2022-10-17T13:10:54;2.60;;;1.40;;
22359;SDS011;11347;52.030;4.690;2022-10-17T13:13:35;2.20;;;1.30;;
22359;SDS011;11347;52.030;4.690;2022-10-17T13:16:04;2.17;;;1.20;;
22359;SDS011;11347;52.030;4.690;2022-10-17T13:18:30;2.70;;;1.70;;
22359;SDS011;11347;52.030;4.690;2022-10-17T13:21:00;2.80;;;1.50;;
22359;SDS011;11347;52.030;4.690;2022-10-17T13:23:32;2.30;;;1.30;;
22359;SDS011;11347;52.030;4.690;2022-10-17T13:28:37;4.07;;;1.80;;
22359;SDS011;11347;52.030;4.690;2022-10-17T13:31:03;2.17;;;1.40;;
22359;SDS011;11347;52.030;4.690;2022-10-17T13:33:33;1.73;;;1.30;;
22359;SDS011;11347;52.030;4.690;2022-10-17T13:36:02;2.97;;;1.40;;
22359;SDS011;11347;52.030;4.690;2022-10-17T13:38:31;3.10;;;1.33;;
22359;SDS011;11347;52.030;4.690;2022-10-17T13:40:57;3.53;;;1.60;;
22359;SDS011;11347;52.030;4.690;2022-10-17T13:43:24;2.10;;;1.40;;
22359;SDS011;11347;52.030;4.690;2022-10-17T13:45:51;3.53;;;1.47;;
22359;SDS011;11347;52.030;4.690;2022-10-17T13:48:22;2.63;;;1.57;;
22359;SDS011;11347;52.030;4.690;2022-10-17T13:50:51;2.77;;;1.40;;
22359;SDS011;11347;52.030;4.690;2022-10-17T13:53:33;2.67;;;1.30;;
22359;SDS011;11347;52.030;4.690;2022-10-17T13:56:02;2.67;;;1.47;;
22359;SDS011;11347;52.030;4.690;2022-10-17T13:58:41;2.40;;;1.40;;
22359;SDS011;11347;52.030;4.690;2022-10-17T14:01:08;2.30;;;1.50;;
22359;SDS011;11347;52.030;4.690;2022-10-17T14:03:35;5.70;;;1.70;;
22359;SDS011;11347;52.030;4.690;2022-10-17T14:08:28;2.67;;;1.30;;
22359;SDS011;11347;52.030;4.690;2022-10-17T14:10:55;3.10;;;1.53;;
22359;SDS011;11347;52.030;4.690;2022-10-17T14:13:29;3.77;;;1.50;;
22359;SDS011;11347;52.030;4.690;2022-10-17T14:16:00;2.90;;;1.30;;
22359;SDS011;11347;52.030;4.690;2022-10-17T14:18:29;2.10;;;1.30;;
22359;SDS011;11347;52.030;4.690;2022-10-17T14:20:58;3.77;;;1.53;;
22359;SDS011;11347;52.030;4.690;2022-10-17T14:26:02;3.43;;;1.53;;
22359;SDS011;11347;52.030;4.690;2022-10-17T14:28:30;2.07;;;1.33;;
22359;SDS011;11347;52.030;4.690;2022-10-17T14:31:08;2.37;;;1.37;;
22359;SDS011;11347;52.030;4.690;2022-10-17T14:33:34;2.20;;;1.30;;
22359;SDS011;11347;52.030;4.690;2022-10-17T14:36:01;3.30;;;1.57;;
22359;SDS011;11347;52.030;4.690;2022-10-17T14:38:29;3.20;;;1.20;;
22359;SDS011;11347;52.030;4.690;2022-10-17T14:40:57;2.97;;;1.30;;
22359;SDS011;11347;52.030;4.690;2022-10-17T14:43:26;2.10;;;1.37;;
22359;SDS011;11347;52.030;4.690;2022-10-17T14:45:58;3.73;;;1.40;;
22359;SDS011;11347;52.030;4.690;2022-10-17T14:48:25;2.47;;;1.50;;
22359;SDS011;11347;52.030;4.690;2022-10-17T14:51:08;3.40;;;1.30;;
22359;SDS011;11347;52.030;4.690;2022-10-17T14:53:33;5.43;;;1.53;;
22359;SDS011;11347;52.030;4.690;2022-10-17T14:56:00;1.93;;;1.27;;
22359;SDS011;11347;52.030;4.690;2022-10-17T14:58:30;3.80;;;1.30;;
22359;SDS011;11347;52.030;4.690;2022-10-17T15:00:58;2.70;;;1.30;;
22359;SDS011;11347;52.030;4.690;2022-10-17T15:03:25;2.30;;;1.40;;
22359;SDS011;11347;52.030;4.690;2022-10-17T15:05:52;4.73;;;1.40;;
22359;SDS011;11347;52.030;4.690;2022-10-17T15:08:19;3.30;;;1.10;;
22359;SDS011;11347;52.030;4.690;2022-10-17T15:10:47;1.90;;;1.10;;
22359;SDS011;11347;52.030;4.690;2022-10-17T15:13:14;3.20;;;1.40;;
22359;SDS011;11347;52.030;4.690;2022-10-17T15:15:40;4.17;;;1.20;;
22359;SDS011;11347;52.030;4.690;2022-10-17T15:18:06;2.87;;;1.33;;
22359;SDS011;11347;52.030;4.690;2022-10-17T15:20:34;3.13;;;1.30;;
22359;SDS011;11347;52.030;4.690;2022-10-17T15:23:00;2.37;;;1.40;;
22359;SDS011;11347;52.030;4.690;2022-10-17T15:25:28;1.90;;;1.20;;
22359;SDS011;11347;52.030;4.690;2022-10-17T15:27:55;1.97;;;1.10;;
22359;SDS011;11347;52.030;4.690;2022-10-17T15:30:23;4.03;;;1.30;;
22359;SDS011;11347;52.030;4.690;2022-10-17T15:32:50;2.73;;;1.10;;
22359;SDS011;11347;52.030;4.690;2022-10-17T15:35:17;3.23;;;1.30;;
22359;SDS011;11347;52.030;4.690;2022-10-17T15:37:43;5.10;;;1.30;;
22359;SDS011;11347;52.030;4.690;2022-10-17T15:40:43;3.80;;;1.33;;
22359;SDS011;11347;52.030;4.690;2022-10-17T15:43:05;3.50;;;1.20;;
22359;SDS011;11347;52.030;4.690;2022-10-17T15:45:30;3.37;;;1.40;;
22359;SDS011;11347;52.030;4.690;2022-10-17T15:47:59;2.70;;;1.20;;
22359;SDS011;11347;52.030;4.690;2022-10-17T15:50:29;5.93;;;1.30;;
22359;SDS011;11347;52.030;4.690;2022-10-17T15:52:55;2.73;;;1.20;;
22359;SDS011;11347;52.030;4.690;2022-10-17T15:55:20;1.87;;;1.10;;
22359;SDS011;11347;52.030;4.690;2022-10-17T15:57:47;2.43;;;1.07;;
22359;SDS011;11347;52.030;4.690;2022-10-17T16:00:17;3.67;;;1.43;;
22359;SDS011;11347;52.030;4.690;2022-10-17T16:02:45;2.20;;;1.10;;
22359;SDS011;11347;52.030;4.690;2022-10-17T16:05:17;3.10;;;1.00;;
22359;SDS011;11347;52.030;4.690;2022-10-17T16:07:43;3.43;;;1.40;;
22359;SDS011;11347;52.030;4.690;2022-10-17T16:10:12;2.40;;;1.30;;
22359;SDS011;11347;52.030;4.690;2022-10-17T16:12:38;3.67;;;1.43;;
22359;SDS011;11347;52.030;4.690;2022-10-17T16:15:12;4.37;;;2.03;;
22359;SDS011;11347;52.030;4.690;2022-10-17T16:17:39;4.83;;;2.47;;
22359;SDS011;11347;52.030;4.690;2022-10-17T16:20:05;4.70;;;2.80;;
22359;SDS011;11347;52.030;4.690;2022-10-17T16:22:32;7.40;;;2.90;;
22359;SDS011;11347;52.030;4.690;2022-10-17T16:25:00;6.03;;;2.97;;
22359;SDS011;11347;52.030;4.690;2022-10-17T16:27:36;10.23;;;3.20;;
22359;SDS011;11347;52.030;4.690;2022-10-17T16:30:06;8.20;;;3.70;;
22359;SDS011;11347;52.030;4.690;2022-10-17T16:32:32;11.13;;;3.77;;
22359;SDS011;11347;52.030;4.690;2022-10-17T16:34:58;9.10;;;4.00;;
22359;SDS011;11347;52.030;4.690;2022-10-17T16:37:24;8.43;;;3.97;;
22359;SDS011;11347;52.030;4.690;2022-10-17T16:39:50;8.20;;;3.90;;
22359;SDS011;11347;52.030;4.690;2022-10-17T16:42:17;9.00;;;3.80;;
22359;SDS011;11347;52.030;4.690;2022-10-17T16:44:44;10.60;;;4.40;;
22359;SDS011;11347;52.030;4.690;2022-10-17T16:47:10;8.97;;;4.37;;
22359;SDS011;11347;52.030;4.690;2022-10-17T16:49:36;9.73;;;4.30;;
22359;SDS011;11347;52.030;4.690;2022-10-17T16:52:02;8.20;;;4.57;;
22359;SDS011;11347;52.030;4.690;2022-10-17T16:54:28;9.97;;;4.67;;
22359;SDS011;11347;52.030;4.690;2022-10-17T16:56:54;9.00;;;4.57;;
22359;SDS011;11347;52.030;4.690;2022-10-17T16:59:21;11.00;;;5.17;;
22359;SDS011;11347;52.030;4.690;2022-10-17T17:01:47;8.80;;;4.53;;
22359;SDS011;11347;52.030;4.690;2022-10-17T17:04:13;10.30;;;4.63;;
22359;SDS011;11347;52.030;4.690;2022-10-17T17:06:39;9.83;;;4.30;;
22359;SDS011;11347;52.030;4.690;2022-10-17T17:09:04;6.90;;;3.73;;
22359;SDS011;11347;52.030;4.690;2022-10-17T17:11:30;7.53;;;3.90;;